createdAt,value
2023-05-21T00:00:42.783Z,65.21
2023-05-21T00:03:31.207Z,65.31
2023-05-21T00:06:01.775Z,65.29
2023-05-21T00:08:30.721Z,65.44
2023-05-21T00:10:59.005Z,65.39
2023-05-21T00:13:27.238Z,65.38
2023-05-21T00:15:55.696Z,65.73
2023-05-21T00:18:25.591Z,66.14
2023-05-21T00:20:54.873Z,66.49
2023-05-21T00:23:23.430Z,67.23
2023-05-21T00:25:53.468Z,67.63
2023-05-21T00:28:22.292Z,67.42
2023-05-21T00:30:51.414Z,67.53
2023-05-21T00:33:22.246Z,67.43
2023-05-21T00:35:50.622Z,67.73
2023-05-21T00:38:19.326Z,67.70
2023-05-21T00:40:48.007Z,67.83
2023-05-21T00:43:16.692Z,67.93
2023-05-21T00:45:46.817Z,68.06
2023-05-21T00:48:16.124Z,68.44
2023-05-21T00:50:45.146Z,68.24
2023-05-21T00:53:15.500Z,68.01
2023-05-21T00:55:44.275Z,68.14
2023-05-21T00:58:13.062Z,68.76
2023-05-21T01:00:41.964Z,68.73
2023-05-21T01:03:11.269Z,69.26
2023-05-21T01:05:39.729Z,69.99
2023-05-21T01:08:10.507Z,70.49
2023-05-21T01:10:38.947Z,70.76
2023-05-21T01:13:07.641Z,71.10
2023-05-21T01:15:38.158Z,71.32
2023-05-21T01:18:07.862Z,71.32
2023-05-21T01:20:37.761Z,71.26
2023-05-21T01:23:06.838Z,71.09
2023-05-21T01:25:35.946Z,70.85
2023-05-21T01:28:04.971Z,70.64
2023-05-21T01:30:34.111Z,70.66
2023-05-21T01:33:15.684Z,70.97
2023-05-21T01:35:54.459Z,70.85
2023-05-21T01:38:42.841Z,70.64
2023-05-21T01:41:12.886Z,70.37
2023-05-21T01:43:44.543Z,70.22
2023-05-21T01:46:18.052Z,70.55
2023-05-21T01:48:48.780Z,70.67
2023-05-21T01:51:17.273Z,70.82
2023-05-21T01:53:45.658Z,70.81
2023-05-21T01:56:16.171Z,70.72
2023-05-21T01:58:44.777Z,70.49
2023-05-21T02:01:13.266Z,70.43
2023-05-21T02:03:41.680Z,70.36
2023-05-21T02:06:10.349Z,70.16
2023-05-21T02:08:38.834Z,70.11
2023-05-21T02:11:07.238Z,69.92
2023-05-21T02:13:42.714Z,69.68
2023-05-21T02:16:14.769Z,69.84
2023-05-21T02:18:43.802Z,69.67
2023-05-21T02:21:12.840Z,69.26
2023-05-21T02:23:42.779Z,69.19
2023-05-21T02:26:11.341Z,68.95
2023-05-21T02:28:40.757Z,68.35
2023-05-21T02:31:09.444Z,68.40
2023-05-21T02:33:41.007Z,68.64
2023-05-21T02:36:13.384Z,68.60
2023-05-21T02:38:45.572Z,68.51
2023-05-21T02:41:14.064Z,68.49
2023-05-21T02:43:42.453Z,68.36
2023-05-21T02:46:11.647Z,68.25
2023-05-21T02:48:40.405Z,68.33
2023-05-21T02:51:09.205Z,68.22
2023-05-21T02:53:37.609Z,68.32
2023-05-21T02:56:06.379Z,68.30
2023-05-21T02:58:34.761Z,68.48
2023-05-21T03:01:03.166Z,68.33
2023-05-21T03:03:32.634Z,68.57
2023-05-21T03:06:01.048Z,68.46
2023-05-21T03:08:29.643Z,68.46
2023-05-21T03:10:58.165Z,68.49
2023-05-21T03:13:26.501Z,68.54
2023-05-21T03:15:56.420Z,66.99
2023-05-21T03:18:24.835Z,66.17
2023-05-21T03:20:54.211Z,65.89
2023-05-21T03:23:22.604Z,65.55
2023-05-21T03:25:51.490Z,65.94
2023-05-21T03:28:20.594Z,66.07
2023-05-21T03:30:51.238Z,65.89
2023-05-21T03:33:39.677Z,65.81
2023-05-21T03:36:18.789Z,64.69
2023-05-21T03:38:47.185Z,63.59
2023-05-21T03:41:15.821Z,63.60
2023-05-21T03:43:46.201Z,63.45
2023-05-21T03:46:14.797Z,63.37
2023-05-21T03:49:07.127Z,62.94
2023-05-21T03:51:38.476Z,62.65
2023-05-21T03:54:06.970Z,62.74
2023-05-21T03:56:39.255Z,62.89
2023-05-21T03:59:07.540Z,63.07
2023-05-21T04:01:36.946Z,63.34
2023-05-21T04:04:06.161Z,63.45
2023-05-21T04:06:34.821Z,63.46
2023-05-21T04:09:02.983Z,63.53
2023-05-21T04:11:31.707Z,63.64
2023-05-21T04:13:59.987Z,63.74
2023-05-21T04:16:28.644Z,63.92
2023-05-21T04:18:57.153Z,64.17
2023-05-21T04:21:27.484Z,64.23
2023-05-21T04:23:57.817Z,64.17
2023-05-21T04:26:35.553Z,64.03
2023-05-21T04:29:05.229Z,63.52
2023-05-21T04:31:34.496Z,62.41
2023-05-21T04:34:03.765Z,61.84
2023-05-21T04:36:34.068Z,61.36
2023-05-21T04:39:02.768Z,60.82
2023-05-21T04:41:31.860Z,60.53
2023-05-21T04:44:01.256Z,60.49
2023-05-21T04:46:31.504Z,60.60
2023-05-21T04:49:06.150Z,60.53
2023-05-21T04:51:34.609Z,60.34
2023-05-21T04:54:04.184Z,60.03
2023-05-21T04:56:32.500Z,59.95
2023-05-21T04:59:05.641Z,60.13
2023-05-21T05:01:35.552Z,60.12
2023-05-21T05:04:04.677Z,59.75
2023-05-21T05:06:33.214Z,59.54
2023-05-21T05:09:01.587Z,59.41
2023-05-21T05:11:30.177Z,59.46
2023-05-21T05:13:59.406Z,59.31
2023-05-21T05:16:29.769Z,59.20
2023-05-21T05:18:58.569Z,59.01
2023-05-21T05:21:28.316Z,58.73
2023-05-21T05:23:57.476Z,58.47
2023-05-21T05:26:28.703Z,58.62
2023-05-21T05:28:57.670Z,58.41
2023-05-21T05:31:26.447Z,57.85
2023-05-21T05:33:55.571Z,57.55
2023-05-21T05:36:25.379Z,57.14
2023-05-21T05:38:53.867Z,57.14
2023-05-21T05:41:23.280Z,56.84
2023-05-21T05:43:51.863Z,56.76
2023-05-21T05:46:22.292Z,56.80
2023-05-21T05:48:52.423Z,56.76
2023-05-21T05:51:20.966Z,56.92
2023-05-21T05:53:49.399Z,56.56
2023-05-21T05:56:17.703Z,56.39
2023-05-21T05:58:46.273Z,56.29
2023-05-21T06:01:16.702Z,56.28
2023-05-21T06:03:45.390Z,56.11
2023-05-21T06:06:17.268Z,55.69
2023-05-21T06:08:46.554Z,55.59
2023-05-21T06:11:17.337Z,55.31
2023-05-21T06:13:46.327Z,55.34
2023-05-21T06:16:16.292Z,55.31
2023-05-21T06:18:44.839Z,55.28
2023-05-21T06:21:13.389Z,54.90
2023-05-21T06:23:42.718Z,55.10
2023-05-21T06:26:11.627Z,55.06
2023-05-21T06:28:40.117Z,54.48
2023-05-21T06:31:09.996Z,54.45
2023-05-21T06:33:39.626Z,54.60
2023-05-21T06:36:08.706Z,54.42
2023-05-21T06:38:37.026Z,54.03
2023-05-21T06:41:05.478Z,54.26
2023-05-21T06:43:52.722Z,54.60
2023-05-21T06:46:53.559Z,54.35
2023-05-21T06:49:22.151Z,54.66
2023-05-21T06:51:50.826Z,54.18
2023-05-21T06:54:19.290Z,53.86
2023-05-21T06:56:47.773Z,53.27
2023-05-21T06:59:18.839Z,52.42
2023-05-21T07:01:47.283Z,52.51
2023-05-21T07:04:16.008Z,52.87
2023-05-21T07:06:44.992Z,52.24
2023-05-21T07:09:13.381Z,51.42
2023-05-21T07:11:42.219Z,51.65
2023-05-21T07:14:11.575Z,51.38
2023-05-21T07:16:40.010Z,50.68
2023-05-21T07:19:09.397Z,50.64
2023-05-21T07:21:37.853Z,50.77
2023-05-21T07:24:07.977Z,49.51
2023-05-21T07:26:39.434Z,49.45
2023-05-21T07:29:08.466Z,49.76
2023-05-21T07:31:37.306Z,49.17
2023-05-21T07:34:05.919Z,49.82
2023-05-21T07:36:34.621Z,49.72
2023-05-21T07:39:03.915Z,50.01
2023-05-21T07:41:33.201Z,49.68
2023-05-21T07:44:02.526Z,49.42
2023-05-21T07:46:33.174Z,49.31
2023-05-21T07:49:02.172Z,48.91
2023-05-21T07:51:34.067Z,48.99
2023-05-21T07:54:02.483Z,48.54
2023-05-21T07:56:34.381Z,48.74
2023-05-21T07:59:02.973Z,48.62
2023-05-21T08:01:37.707Z,48.32
2023-05-21T08:04:07.106Z,47.45
2023-05-21T08:06:37.844Z,47.17
2023-05-21T08:09:07.152Z,47.63
2023-05-21T08:11:36.246Z,48.02
2023-05-21T08:14:04.848Z,47.35
2023-05-21T08:16:33.560Z,47.26
2023-05-21T08:19:02.836Z,46.79
2023-05-21T08:21:33.064Z,46.67
2023-05-21T08:24:03.224Z,46.95
2023-05-21T08:26:31.779Z,46.60
2023-05-21T08:29:00.190Z,46.91
2023-05-21T08:31:28.924Z,46.61
2023-05-21T08:33:57.562Z,45.98
2023-05-21T08:36:38.424Z,45.94
2023-05-21T08:39:17.745Z,45.74
2023-05-21T08:41:50.126Z,45.78
2023-05-21T08:44:25.155Z,45.12
2023-05-21T08:46:55.165Z,45.25
2023-05-21T08:49:27.570Z,45.15
2023-05-21T08:51:58.933Z,44.99
2023-05-21T08:54:28.197Z,44.46
2023-05-21T08:56:58.531Z,43.86
2023-05-21T08:59:29.724Z,43.59
2023-05-21T09:02:00.313Z,43.40
2023-05-21T09:04:36.480Z,42.57
2023-05-21T09:07:05.709Z,42.10
2023-05-21T09:10:10.076Z,41.39
2023-05-21T09:12:38.382Z,41.39
2023-05-21T09:15:07.969Z,41.36
2023-05-21T09:17:39.922Z,40.66
2023-05-21T09:20:29.876Z,40.14
2023-05-21T09:23:06.918Z,39.51
2023-05-21T09:25:38.042Z,38.87
2023-05-21T09:28:15.605Z,38.63
2023-05-21T09:30:54.387Z,37.49
2023-05-21T09:33:27.622Z,37.12
2023-05-21T09:35:56.880Z,37.49
2023-05-21T09:38:27.200Z,37.23
2023-05-21T09:40:57.395Z,36.95
2023-05-21T09:43:26.248Z,35.91
2023-05-21T09:45:58.970Z,35.13
2023-05-21T09:48:41.068Z,34.56
2023-05-21T09:51:20.724Z,35.01
2023-05-21T09:53:51.923Z,34.17
2023-05-21T09:56:32.028Z,33.64
2023-05-21T09:59:06.987Z,33.07
2023-05-21T10:01:36.253Z,32.46
2023-05-21T10:04:08.462Z,31.63
2023-05-21T10:06:48.137Z,33.15
2023-05-21T10:09:19.575Z,33.03
2023-05-21T10:11:51.928Z,32.16
2023-05-21T10:14:22.738Z,31.38
2023-05-21T10:16:54.335Z,30.18
2023-05-21T10:19:25.017Z,29.27
2023-05-21T10:21:54.689Z,29.22
2023-05-21T10:24:24.853Z,30.04
2023-05-21T10:26:53.834Z,30.35
2023-05-21T10:29:23.524Z,29.63
2023-05-21T10:31:52.969Z,29.51
2023-05-21T10:34:23.839Z,30.56
2023-05-21T10:36:55.047Z,31.30
2023-05-21T10:39:25.826Z,30.78
2023-05-21T10:42:23.551Z,29.69
2023-05-21T10:45:08.488Z,29.88
2023-05-21T10:48:02.094Z,29.90
2023-05-21T10:50:49.993Z,30.04
2023-05-21T10:53:43.007Z,29.25
2023-05-21T10:56:17.018Z,28.01
2023-05-21T10:59:04.444Z,27.49
2023-05-21T11:01:36.820Z,28.42
2023-05-21T11:04:06.446Z,27.88
2023-05-21T11:06:34.720Z,28.28
2023-05-21T11:09:13.784Z,28.23
2023-05-21T11:11:43.101Z,29.02
2023-05-21T11:14:31.995Z,28.71
2023-05-21T11:17:01.499Z,29.62
2023-05-21T11:19:36.410Z,30.13
2023-05-21T11:22:24.090Z,30.80
2023-05-21T11:24:56.895Z,29.60
2023-05-21T11:27:34.755Z,26.76
2023-05-21T11:30:15.103Z,27.19
2023-05-21T11:33:14.204Z,26.30
2023-05-21T11:35:45.439Z,27.34
2023-05-21T11:38:13.828Z,27.49
2023-05-21T11:41:05.862Z,27.86
2023-05-21T11:43:36.497Z,26.88
2023-05-21T11:46:09.995Z,26.38
2023-05-21T11:48:39.505Z,24.85
2023-05-21T11:51:07.997Z,23.60
2023-05-21T11:53:39.544Z,23.37
2023-05-21T11:56:09.997Z,23.92
2023-05-21T11:58:42.963Z,24.94
2023-05-21T12:01:22.542Z,25.19
2023-05-21T12:03:51.221Z,25.31
2023-05-21T12:06:26.577Z,24.93
2023-05-21T12:08:58.506Z,23.67
2023-05-21T12:11:27.706Z,22.38
2023-05-21T12:13:56.776Z,23.09
2023-05-21T12:16:25.557Z,23.07
2023-05-21T12:18:55.021Z,22.72
2023-05-21T12:21:23.389Z,23.16
2023-05-21T12:23:52.026Z,24.30
2023-05-21T12:26:21.950Z,25.24
2023-05-21T12:28:50.808Z,25.61
2023-05-21T12:31:19.923Z,24.80
2023-05-21T12:33:50.214Z,25.18
2023-05-21T12:36:34.377Z,23.69
2023-05-21T12:39:02.655Z,23.08
2023-05-21T12:41:30.871Z,22.02
2023-05-21T12:43:59.628Z,22.23
2023-05-21T12:46:28.494Z,21.42
2023-05-21T12:48:57.019Z,22.06
2023-05-21T12:51:25.605Z,21.07
2023-05-21T12:53:53.772Z,20.36
2023-05-21T12:56:22.700Z,19.73
2023-05-21T12:58:51.402Z,19.45
2023-05-21T13:01:21.953Z,19.51
2023-05-21T13:03:51.359Z,19.58
2023-05-21T13:06:19.697Z,20.51
2023-05-21T13:08:48.081Z,22.05
2023-05-21T13:11:16.360Z,22.53
2023-05-21T13:13:44.584Z,23.72
2023-05-21T13:16:12.801Z,23.41
2023-05-21T13:18:41.406Z,22.86
2023-05-21T13:21:10.001Z,22.48
2023-05-21T13:23:38.632Z,20.87
2023-05-21T13:26:07.690Z,19.46
2023-05-21T13:28:37.172Z,20.60
2023-05-21T13:31:05.890Z,21.05
2023-05-21T13:33:34.518Z,20.03
2023-05-21T13:36:02.982Z,19.51
2023-05-21T13:38:31.251Z,19.83
2023-05-21T13:40:59.761Z,20.63
2023-05-21T13:43:28.535Z,20.73
2023-05-21T13:45:57.166Z,19.33
2023-05-21T13:48:25.701Z,18.76
2023-05-21T13:50:56.872Z,17.44
2023-05-21T13:53:25.346Z,18.02
2023-05-21T13:55:53.632Z,19.37
2023-05-21T13:58:21.731Z,19.49
2023-05-21T14:00:50.329Z,20.20
2023-05-21T14:03:18.783Z,21.09
2023-05-21T14:05:48.577Z,21.63
2023-05-21T14:08:20.165Z,22.06
2023-05-21T14:10:48.328Z,22.47
2023-05-21T14:13:20.102Z,22.92
2023-05-21T14:15:48.743Z,23.72
2023-05-21T14:18:17.060Z,24.12
2023-05-21T14:20:45.309Z,24.35
2023-05-21T14:23:13.772Z,23.27
2023-05-21T14:25:43.015Z,22.91
2023-05-21T14:28:11.740Z,23.21
2023-05-21T14:30:40.317Z,22.33
2023-05-21T14:33:08.717Z,20.28
2023-05-21T14:35:37.536Z,19.60
2023-05-21T14:38:05.966Z,19.11
2023-05-21T14:40:34.164Z,19.89
2023-05-21T14:43:02.839Z,20.35
2023-05-21T14:45:33.397Z,21.48
2023-05-21T14:48:08.676Z,22.12
2023-05-21T14:50:41.301Z,22.44
2023-05-21T14:53:11.764Z,21.81
2023-05-21T14:55:40.047Z,22.37
2023-05-21T14:58:08.830Z,21.45
2023-05-21T15:00:38.160Z,21.31
2023-05-21T15:03:07.228Z,20.65
2023-05-21T15:05:36.248Z,20.37
2023-05-21T15:08:06.166Z,19.85
2023-05-21T15:10:34.337Z,20.03
2023-05-21T15:13:02.805Z,19.86
2023-05-21T15:15:31.184Z,19.53
2023-05-21T15:17:59.393Z,18.89
2023-05-21T15:20:27.905Z,18.24
2023-05-21T15:23:15.374Z,18.38
2023-05-21T15:25:46.065Z,18.82
2023-05-21T15:28:14.622Z,17.85
2023-05-21T15:30:43.292Z,17.35
2023-05-21T15:33:11.795Z,17.16
2023-05-21T15:35:41.223Z,17.32
2023-05-21T15:38:09.733Z,16.67
2023-05-21T15:40:41.479Z,16.26
2023-05-21T15:43:10.044Z,16.57
2023-05-21T15:45:38.875Z,17.14
2023-05-21T15:48:08.062Z,18.04
2023-05-21T15:50:36.518Z,17.79
2023-05-21T15:53:05.316Z,18.20
2023-05-21T15:55:34.047Z,18.21
2023-05-21T15:58:03.832Z,18.38
2023-05-21T16:00:32.304Z,18.83
2023-05-21T16:03:00.753Z,19.24
2023-05-21T16:05:29.577Z,19.99
2023-05-21T16:07:57.777Z,20.71
2023-05-21T16:10:26.048Z,20.91
2023-05-21T16:12:54.256Z,21.15
2023-05-21T16:15:22.985Z,21.44
2023-05-21T16:17:51.302Z,21.70
2023-05-21T16:20:22.216Z,22.25
2023-05-21T16:22:51.447Z,22.62
2023-05-21T16:25:20.326Z,23.22
2023-05-21T16:27:49.341Z,23.94
2023-05-21T16:30:17.936Z,24.49
2023-05-21T16:32:46.147Z,24.96
2023-05-21T16:35:14.598Z,25.71
2023-05-21T16:37:42.990Z,25.81
2023-05-21T16:40:12.378Z,26.05
2023-05-21T16:42:40.641Z,26.39
2023-05-21T16:45:09.536Z,27.09
2023-05-21T16:47:37.776Z,27.13
2023-05-21T16:50:06.898Z,27.35
2023-05-21T16:52:35.134Z,27.63
2023-05-21T16:55:03.659Z,27.96
2023-05-21T16:57:32.101Z,28.30
2023-05-21T17:00:02.051Z,28.66
2023-05-21T17:02:31.471Z,28.14
2023-05-21T17:04:59.823Z,28.17
2023-05-21T17:07:27.995Z,28.92
2023-05-21T17:09:56.379Z,28.95
2023-05-21T17:12:29.266Z,29.17
2023-05-21T17:15:01.337Z,29.75
2023-05-21T17:17:30.410Z,29.68
2023-05-21T17:19:59.238Z,30.17
2023-05-21T17:22:28.127Z,30.33
2023-05-21T17:24:56.541Z,30.24
2023-05-21T17:27:25.469Z,30.42
2023-05-21T17:29:53.675Z,30.34
2023-05-21T17:32:21.882Z,30.21
2023-05-21T17:34:50.154Z,30.11
2023-05-21T17:37:18.638Z,29.95
2023-05-21T17:39:47.152Z,29.94
2023-05-21T17:42:17.228Z,30.07
2023-05-21T17:44:45.559Z,30.08
2023-05-21T17:47:14.459Z,30.10
2023-05-21T17:49:45.485Z,30.21
2023-05-21T17:52:14.105Z,30.39
2023-05-21T17:54:42.654Z,30.49
2023-05-21T17:57:10.940Z,30.62
2023-05-21T17:59:41.501Z,30.61
2023-05-21T18:02:09.851Z,30.80
2023-05-21T18:04:38.595Z,31.05
2023-05-21T18:07:10.044Z,31.32
2023-05-21T18:09:38.390Z,31.60
2023-05-21T18:12:07.638Z,31.52
2023-05-21T18:14:36.144Z,31.92
2023-05-21T18:17:07.228Z,31.74
2023-05-21T18:19:35.822Z,31.79
2023-05-21T18:22:05.625Z,31.89
2023-05-21T18:24:34.334Z,32.21
2023-05-21T18:27:02.814Z,32.83
2023-05-21T18:29:31.322Z,32.95
2023-05-21T18:32:00.060Z,33.45
2023-05-21T18:34:28.467Z,33.45
2023-05-21T18:36:58.925Z,33.81
2023-05-21T18:39:28.317Z,33.89
2023-05-21T18:44:27.951Z,34.24
2023-05-21T18:46:58.027Z,34.68
2023-05-21T18:49:26.766Z,34.67
2023-05-21T18:51:55.253Z,34.75
2023-05-21T18:54:23.719Z,34.85
2023-05-21T18:56:52.328Z,34.97
2023-05-21T18:59:20.525Z,35.18
2023-05-21T19:01:48.706Z,35.26
2023-05-21T19:04:19.417Z,35.37
2023-05-21T19:06:47.801Z,35.94
2023-05-21T19:09:18.354Z,36.13
2023-05-21T19:11:47.239Z,36.37
2023-05-21T19:14:15.761Z,36.50
2023-05-21T19:16:43.917Z,36.77
2023-05-21T19:19:12.593Z,36.86
2023-05-21T19:21:41.048Z,37.14
2023-05-21T19:24:10.395Z,37.24
2023-05-21T19:26:39.255Z,37.27
2023-05-21T19:29:09.820Z,37.46
2023-05-21T19:31:39.221Z,37.32
2023-05-21T19:34:11.026Z,37.51
2023-05-21T19:36:52.434Z,37.51
2023-05-21T19:39:25.059Z,37.55
2023-05-21T19:41:53.819Z,37.82
2023-05-21T19:44:21.977Z,37.74
2023-05-21T19:46:51.647Z,37.85
2023-05-21T19:49:20.132Z,37.91
2023-05-21T19:51:49.669Z,37.82
2023-05-21T19:54:18.861Z,37.81
2023-05-21T19:56:47.539Z,37.95
2023-05-21T19:59:16.026Z,38.14
2023-05-21T20:01:45.156Z,38.16
2023-05-21T20:04:14.029Z,38.18
2023-05-21T20:06:42.539Z,38.00
2023-05-21T20:09:13.440Z,38.19
2023-05-21T20:11:42.553Z,38.33
2023-05-21T20:14:11.234Z,38.55
2023-05-21T20:16:39.760Z,38.60
2023-05-21T20:19:10.876Z,38.63
2023-05-21T20:21:39.788Z,38.73
2023-05-21T20:24:09.068Z,38.60
2023-05-21T20:26:37.462Z,38.55
2023-05-21T20:29:08.109Z,38.62
2023-05-21T20:31:37.141Z,38.55
2023-05-21T20:34:07.851Z,38.59
2023-05-21T20:36:37.132Z,38.37
2023-05-21T20:39:06.476Z,38.45
2023-05-21T20:41:37.918Z,38.41
2023-05-21T20:44:06.890Z,38.72
2023-05-21T20:46:38.971Z,38.68
2023-05-21T20:49:07.951Z,38.82
2023-05-21T20:51:36.349Z,38.78
2023-05-21T20:54:04.818Z,38.86
2023-05-21T20:56:42.100Z,38.80
2023-05-21T20:59:12.262Z,38.58
2023-05-21T21:01:41.499Z,38.84
2023-05-21T21:04:10.243Z,38.76
2023-05-21T21:06:40.566Z,38.60
2023-05-21T21:09:08.948Z,38.63
2023-05-21T21:11:37.533Z,38.50
2023-05-21T21:14:06.046Z,38.59
2023-05-21T21:16:34.546Z,38.93
2023-05-21T21:19:03.311Z,39.68
2023-05-21T21:21:32.012Z,40.09
2023-05-21T21:24:00.824Z,40.49
2023-05-21T21:26:29.273Z,40.45
2023-05-21T21:28:59.190Z,40.71
2023-05-21T21:31:27.987Z,40.81
2023-05-21T21:33:56.419Z,40.95
2023-05-21T21:36:25.062Z,41.44
2023-05-21T21:38:53.192Z,41.66
2023-05-21T21:41:22.047Z,42.16
2023-05-21T21:43:51.746Z,42.06
2023-05-21T21:46:20.156Z,42.23
2023-05-21T21:48:49.441Z,42.63
2023-05-21T21:51:17.926Z,42.77
2023-05-21T21:53:46.315Z,42.90
2023-05-21T21:56:14.704Z,43.33
2023-05-21T21:58:43.280Z,43.64
2023-05-21T22:01:11.702Z,44.26
2023-05-21T22:03:40.112Z,44.77
2023-05-21T22:06:08.548Z,45.37
2023-05-21T22:08:36.828Z,45.74
2023-05-21T22:11:05.170Z,46.41
2023-05-21T22:13:34.557Z,46.98
2023-05-21T22:16:03.213Z,47.16
2023-05-21T22:18:39.654Z,46.97
2023-05-21T22:21:10.652Z,46.43
2023-05-21T22:23:40.044Z,46.36
2023-05-21T22:26:09.619Z,46.75
2023-05-21T22:28:38.229Z,46.74
2023-05-21T22:31:07.315Z,46.76
2023-05-21T22:33:36.943Z,47.01
2023-05-21T22:36:05.987Z,47.08
2023-05-21T22:38:34.226Z,47.14
2023-05-21T22:41:02.435Z,47.33
2023-05-21T22:43:31.309Z,47.34
2023-05-21T22:45:59.823Z,47.60
2023-05-21T22:48:31.047Z,47.90
2023-05-21T22:51:01.822Z,48.00
2023-05-21T22:53:32.210Z,47.95
2023-05-21T22:56:01.174Z,47.84
2023-05-21T22:58:29.421Z,48.01
2023-05-21T23:00:58.295Z,47.97
2023-05-21T23:03:27.079Z,47.95
2023-05-21T23:05:55.252Z,48.06
2023-05-21T23:08:23.570Z,48.88
2023-05-21T23:10:52.028Z,49.96
2023-05-21T23:13:20.648Z,49.88
2023-05-21T23:15:48.886Z,50.49
2023-05-21T23:18:19.542Z,49.98
2023-05-21T23:20:48.082Z,49.73
2023-05-21T23:23:16.637Z,49.50
2023-05-21T23:25:45.721Z,49.50
2023-05-21T23:28:14.297Z,49.29
2023-05-21T23:30:42.958Z,49.46
2023-05-21T23:33:11.536Z,49.85
2023-05-21T23:35:39.969Z,50.66
2023-05-21T23:38:08.180Z,51.38
2023-05-21T23:40:37.555Z,51.57
2023-05-21T23:43:06.271Z,51.95
2023-05-21T23:45:34.719Z,51.61
2023-05-21T23:48:05.790Z,51.76
2023-05-21T23:50:34.162Z,51.65
2023-05-21T23:53:02.571Z,51.66
2023-05-21T23:55:30.928Z,51.65
2023-05-21T23:57:59.014Z,51.73
